createdAt,value
2023-04-06T00:00:23.673Z,3.57
2023-04-06T00:02:53.252Z,3.47
2023-04-06T00:05:23.980Z,3.42
2023-04-06T00:07:55.291Z,3.50
2023-04-06T00:10:23.984Z,3.50
2023-04-06T00:12:52.902Z,3.41
2023-04-06T00:15:21.989Z,3.47
2023-04-06T00:17:50.947Z,3.30
2023-04-06T00:20:23.062Z,3.44
2023-04-06T00:22:51.988Z,3.37
2023-04-06T00:25:22.296Z,3.34
2023-04-06T00:27:51.482Z,3.28
2023-04-06T00:30:20.523Z,3.08
2023-04-06T00:32:49.335Z,2.86
2023-04-06T00:35:18.339Z,2.97
2023-04-06T00:37:48.319Z,3.12
2023-04-06T00:40:17.466Z,3.06
2023-04-06T00:42:48.895Z,3.00
2023-04-06T00:45:17.753Z,2.94
2023-04-06T00:47:46.646Z,3.03
2023-04-06T00:50:15.571Z,2.99
2023-04-06T00:52:44.456Z,3.13
2023-04-06T00:55:13.534Z,2.96
2023-04-06T00:57:42.553Z,2.94
2023-04-06T01:00:14.530Z,2.79
2023-04-06T01:02:46.080Z,2.83
2023-04-06T01:05:15.594Z,2.81
2023-04-06T01:07:47.458Z,2.97
2023-04-06T01:10:25.401Z,2.75
2023-04-06T01:12:55.112Z,2.73
2023-04-06T01:15:26.752Z,2.75
2023-04-06T01:17:55.770Z,2.67
2023-04-06T01:20:25.279Z,2.75
2023-04-06T01:22:55.726Z,2.70
2023-04-06T01:25:24.754Z,2.69
2023-04-06T01:27:54.525Z,2.61
2023-04-06T01:30:23.572Z,2.80
2023-04-06T01:32:52.891Z,2.65
2023-04-06T01:35:22.750Z,2.62
2023-04-06T01:37:52.879Z,2.62
2023-04-06T01:40:24.774Z,2.51
2023-04-06T01:42:53.786Z,2.49
2023-04-06T01:45:23.554Z,2.53
2023-04-06T01:47:53.153Z,2.48
2023-04-06T01:50:24.841Z,2.48
2023-04-06T01:52:53.848Z,2.44
2023-04-06T01:55:27.396Z,2.48
2023-04-06T01:57:57.398Z,2.55
2023-04-06T02:00:31.359Z,2.53
2023-04-06T02:03:00.463Z,2.50
2023-04-06T02:05:31.636Z,2.48
2023-04-06T02:08:01.120Z,2.54
2023-04-06T02:10:31.631Z,2.44
2023-04-06T02:13:01.478Z,2.54
2023-04-06T02:15:30.323Z,2.53
2023-04-06T02:18:01.724Z,2.38
2023-04-06T02:20:30.859Z,2.38
2023-04-06T02:23:01.066Z,2.47
2023-04-06T02:25:31.362Z,2.44
2023-04-06T02:28:00.030Z,2.52
2023-04-06T02:30:33.593Z,2.52
2023-04-06T02:33:02.893Z,2.51
2023-04-06T02:35:33.131Z,2.35
2023-04-06T02:38:02.013Z,2.24
2023-04-06T02:40:32.455Z,2.37
2023-04-06T02:43:03.679Z,2.48
2023-04-06T02:45:32.611Z,2.22
2023-04-06T02:48:06.164Z,2.54
2023-04-06T02:50:35.641Z,2.27
2023-04-06T02:53:04.967Z,2.47
2023-04-06T02:55:35.981Z,2.44
2023-04-06T02:58:05.154Z,2.63
2023-04-06T03:00:34.304Z,2.45
2023-04-06T03:03:02.989Z,2.21
2023-04-06T03:05:31.942Z,2.39
2023-04-06T03:08:01.076Z,2.32
2023-04-06T03:10:30.251Z,2.28
2023-04-06T03:13:00.740Z,2.36
2023-04-06T03:15:29.671Z,2.42
2023-04-06T03:18:00.537Z,2.35
2023-04-06T03:20:30.691Z,2.30
2023-04-06T03:22:59.435Z,2.30
2023-04-06T03:25:29.457Z,2.28
2023-04-06T03:28:02.159Z,2.25
2023-04-06T03:30:31.437Z,2.16
2023-04-06T03:33:01.065Z,2.17
2023-04-06T03:35:33.705Z,2.14
2023-04-06T03:38:02.730Z,2.06
2023-04-06T03:40:31.681Z,2.17
2023-04-06T03:43:00.453Z,2.02
2023-04-06T03:45:31.500Z,2.25
2023-04-06T03:48:00.349Z,2.12
2023-04-06T03:50:29.549Z,2.13
2023-04-06T03:52:58.409Z,2.10
2023-04-06T03:55:27.167Z,2.20
2023-04-06T03:57:56.494Z,2.20
2023-04-06T04:00:26.685Z,2.13
2023-04-06T04:02:58.823Z,1.92
2023-04-06T04:05:27.756Z,1.94
2023-04-06T04:07:57.327Z,1.99
2023-04-06T04:10:26.508Z,2.23
2023-04-06T04:12:55.310Z,2.12
2023-04-06T04:15:24.251Z,2.04
2023-04-06T04:17:52.960Z,1.81
2023-04-06T04:20:23.046Z,1.91
2023-04-06T04:22:52.112Z,1.93
2023-04-06T04:25:21.111Z,1.77
2023-04-06T04:27:51.041Z,1.80
2023-04-06T04:30:20.561Z,1.77
2023-04-06T04:32:49.641Z,1.96
2023-04-06T04:35:19.709Z,1.90
2023-04-06T04:37:50.306Z,1.86
2023-04-06T04:40:19.285Z,2.08
2023-04-06T04:42:48.878Z,1.99
2023-04-06T04:45:18.078Z,2.07
2023-04-06T04:47:47.113Z,1.98
2023-04-06T04:50:16.906Z,2.05
2023-04-06T04:52:46.061Z,2.01
2023-04-06T04:55:17.194Z,1.82
2023-04-06T04:57:47.263Z,1.99
2023-04-06T05:00:17.062Z,1.76
2023-04-06T05:02:46.450Z,1.76
2023-04-06T05:05:15.987Z,1.78
2023-04-06T05:07:46.643Z,1.80
2023-04-06T05:10:17.655Z,1.88
2023-04-06T05:12:51.149Z,1.67
2023-04-06T05:15:20.589Z,1.30
2023-04-06T05:17:49.470Z,1.00
2023-04-06T05:20:19.971Z,1.03
2023-04-06T05:22:49.855Z,1.02
2023-04-06T05:25:19.830Z,1.08
2023-04-06T05:27:50.081Z,1.30
2023-04-06T05:30:20.050Z,1.29
2023-04-06T05:32:49.034Z,1.26
2023-04-06T05:35:18.702Z,1.29
2023-04-06T05:37:48.756Z,1.14
2023-04-06T05:40:19.397Z,1.41
2023-04-06T05:42:48.413Z,1.23
2023-04-06T05:45:19.489Z,1.20
2023-04-06T05:47:49.502Z,0.99
2023-04-06T05:50:19.350Z,1.43
2023-04-06T05:52:48.290Z,1.13
2023-04-06T05:55:19.167Z,1.48
2023-04-06T05:57:50.931Z,1.38
2023-04-06T06:00:20.202Z,1.28
2023-04-06T06:02:49.810Z,1.33
2023-04-06T06:05:19.346Z,1.41
2023-04-06T06:07:48.732Z,1.51
2023-04-06T06:10:19.214Z,1.65
2023-04-06T06:12:48.163Z,1.77
2023-04-06T06:15:17.509Z,1.60
2023-04-06T06:17:46.854Z,1.71
2023-04-06T06:20:16.312Z,1.65
2023-04-06T06:22:45.602Z,1.92
2023-04-06T06:25:15.316Z,1.83
2023-04-06T06:27:45.996Z,1.89
2023-04-06T06:30:16.220Z,1.77
2023-04-06T06:32:45.931Z,2.09
2023-04-06T06:35:15.182Z,2.07
2023-04-06T06:37:43.951Z,2.33
2023-04-06T06:40:14.311Z,2.61
2023-04-06T06:42:45.400Z,2.80
2023-04-06T06:45:18.411Z,3.09
2023-04-06T06:47:48.278Z,2.87
2023-04-06T06:50:17.205Z,2.87
2023-04-06T06:52:47.291Z,2.99
2023-04-06T06:55:17.118Z,3.19
2023-04-06T06:57:47.998Z,3.50
2023-04-06T07:00:17.715Z,3.45
2023-04-06T07:02:46.657Z,3.36
2023-04-06T07:05:26.680Z,3.46
2023-04-06T07:07:57.864Z,3.45
2023-04-06T07:10:28.087Z,3.85
2023-04-06T07:12:58.377Z,3.64
2023-04-06T07:15:27.137Z,3.94
2023-04-06T07:17:56.797Z,4.03
2023-04-06T07:20:26.101Z,4.21
2023-04-06T07:22:55.356Z,3.96
2023-04-06T07:25:25.867Z,3.80
2023-04-06T07:27:55.099Z,3.86
2023-04-06T07:30:27.324Z,3.80
2023-04-06T07:32:57.164Z,4.27
2023-04-06T07:35:27.121Z,4.40
2023-04-06T07:37:58.494Z,4.44
2023-04-06T07:40:27.960Z,4.53
2023-04-06T07:42:58.156Z,4.33
2023-04-06T07:45:28.721Z,4.40
2023-04-06T07:47:57.970Z,4.42
2023-04-06T07:50:26.842Z,4.47
2023-04-06T07:52:55.746Z,4.58
2023-04-06T07:55:24.963Z,4.63
2023-04-06T07:57:53.650Z,4.92
2023-04-06T08:00:23.108Z,5.16
2023-04-06T08:02:53.509Z,5.03
2023-04-06T08:05:22.405Z,5.11
2023-04-06T08:07:51.058Z,5.32
2023-04-06T08:10:20.278Z,5.06
2023-04-06T08:12:48.991Z,5.14
2023-04-06T08:15:19.193Z,4.89
2023-04-06T08:17:51.013Z,5.09
2023-04-06T08:20:21.068Z,5.17
2023-04-06T08:22:52.192Z,5.27
2023-04-06T08:25:22.130Z,5.07
2023-04-06T08:27:51.076Z,5.17
2023-04-06T08:30:20.253Z,5.09
2023-04-06T08:32:48.979Z,5.25
2023-04-06T08:35:18.085Z,5.55
2023-04-06T08:37:48.244Z,5.39
2023-04-06T08:40:17.200Z,5.77
2023-04-06T08:42:52.502Z,5.63
2023-04-06T08:45:22.377Z,5.65
2023-04-06T08:47:53.292Z,5.83
2023-04-06T08:50:22.064Z,5.94
2023-04-06T08:52:52.455Z,6.09
2023-04-06T08:55:21.139Z,6.05
2023-04-06T08:57:49.994Z,6.00
2023-04-06T09:00:19.359Z,6.18
2023-04-06T09:02:48.408Z,6.47
2023-04-06T09:05:17.602Z,6.66
2023-04-06T09:07:47.205Z,6.82
2023-04-06T09:10:18.527Z,6.54
2023-04-06T09:12:51.989Z,6.80
2023-04-06T09:15:24.413Z,7.00
2023-04-06T09:17:56.628Z,6.61
2023-04-06T09:20:26.908Z,6.89
2023-04-06T09:22:56.336Z,6.76
2023-04-06T09:25:27.972Z,7.07
2023-04-06T09:28:04.406Z,7.27
2023-04-06T09:30:33.227Z,7.32
2023-04-06T09:33:02.193Z,6.91
2023-04-06T09:35:32.414Z,6.95
2023-04-06T09:38:01.166Z,7.12
2023-04-06T09:40:31.459Z,7.10
2023-04-06T09:43:00.849Z,7.10
2023-04-06T09:45:31.868Z,7.31
2023-04-06T09:48:00.691Z,7.45
2023-04-06T09:50:29.830Z,7.54
2023-04-06T09:53:00.674Z,7.65
2023-04-06T09:55:37.247Z,7.62
2023-04-06T09:58:08.295Z,7.51
2023-04-06T10:00:49.871Z,7.11
2023-04-06T10:03:30.022Z,7.50
2023-04-06T10:06:00.248Z,7.82
2023-04-06T10:08:32.730Z,7.82
2023-04-06T10:11:03.896Z,7.75
2023-04-06T10:13:32.858Z,7.73
2023-04-06T10:16:02.504Z,8.03
2023-04-06T10:18:31.652Z,8.31
2023-04-06T10:21:04.325Z,8.31
2023-04-06T10:23:36.045Z,8.05
2023-04-06T10:26:08.023Z,8.28
2023-04-06T10:28:37.755Z,7.96
2023-04-06T10:31:07.987Z,8.29
2023-04-06T10:33:37.075Z,8.34
2023-04-06T10:36:12.548Z,8.44
2023-04-06T10:38:42.300Z,8.41
2023-04-06T10:41:13.753Z,8.45
2023-04-06T10:43:43.266Z,8.61
2023-04-06T10:46:12.954Z,9.01
2023-04-06T10:48:43.049Z,8.74
2023-04-06T10:51:13.265Z,8.90
2023-04-06T10:53:43.771Z,8.67
2023-04-06T10:56:15.390Z,9.13
2023-04-06T10:58:48.096Z,9.10
2023-04-06T11:01:18.074Z,9.31
2023-04-06T11:03:50.595Z,9.08
2023-04-06T11:06:23.803Z,9.38
2023-04-06T11:08:52.687Z,9.87
2023-04-06T11:11:27.425Z,9.65
2023-04-06T11:13:57.735Z,9.94
2023-04-06T11:16:27.915Z,10.13
2023-04-06T11:18:57.934Z,9.85
2023-04-06T11:21:36.358Z,10.23
2023-04-06T11:24:12.924Z,10.02
2023-04-06T11:26:49.430Z,10.11
2023-04-06T11:29:19.681Z,9.84
2023-04-06T11:31:49.804Z,9.37
2023-04-06T11:34:19.842Z,9.31
2023-04-06T11:36:50.434Z,9.35
2023-04-06T11:39:22.248Z,9.34
2023-04-06T11:41:54.750Z,9.60
2023-04-06T11:44:31.882Z,9.46
2023-04-06T11:47:01.565Z,9.52
2023-04-06T11:49:30.700Z,9.61
2023-04-06T11:52:00.365Z,9.63
2023-04-06T11:54:33.692Z,9.73
2023-04-06T11:57:06.225Z,9.58
2023-04-06T11:59:38.451Z,9.81
2023-04-06T12:02:07.946Z,9.96
2023-04-06T12:04:37.031Z,9.80
2023-04-06T12:07:06.340Z,9.91
2023-04-06T12:09:36.987Z,9.70
2023-04-06T12:12:07.536Z,9.92
2023-04-06T12:14:42.709Z,9.78
2023-04-06T12:17:11.631Z,9.74
2023-04-06T12:19:40.344Z,9.39
2023-04-06T12:22:09.153Z,9.29
2023-04-06T12:24:38.104Z,9.46
2023-04-06T12:27:10.833Z,9.37
2023-04-06T12:29:40.186Z,9.16
2023-04-06T12:32:09.496Z,9.10
2023-04-06T12:34:38.170Z,9.02
2023-04-06T12:37:07.079Z,9.31
2023-04-06T12:39:36.209Z,9.58
2023-04-06T12:42:05.708Z,9.47
2023-04-06T12:44:36.483Z,9.44
2023-04-06T12:47:05.457Z,9.72
2023-04-06T12:49:34.368Z,9.72
2023-04-06T12:52:04.248Z,9.77
2023-04-06T12:54:35.382Z,9.73
2023-04-06T12:57:04.568Z,9.38
2023-04-06T12:59:36.626Z,9.90
2023-04-06T13:02:10.147Z,10.20
2023-04-06T13:04:38.917Z,9.89
2023-04-06T13:07:08.135Z,10.47
2023-04-06T13:09:36.861Z,10.08
2023-04-06T13:12:08.536Z,10.59
2023-04-06T13:14:37.502Z,9.91
2023-04-06T13:17:06.154Z,10.04
2023-04-06T13:19:36.419Z,9.81
2023-04-06T13:22:05.400Z,10.11
2023-04-06T13:24:34.490Z,9.91
2023-04-06T13:27:03.746Z,10.10
2023-04-06T13:29:32.795Z,10.11
2023-04-06T13:32:01.431Z,9.76
2023-04-06T13:34:30.286Z,8.71
2023-04-06T13:37:00.667Z,9.12
2023-04-06T13:39:29.327Z,9.23
2023-04-06T13:41:58.405Z,8.94
2023-04-06T13:44:27.393Z,8.75
2023-04-06T13:46:59.690Z,9.14
2023-04-06T13:49:28.860Z,9.36
2023-04-06T13:51:57.598Z,9.13
2023-04-06T13:54:28.701Z,9.40
2023-04-06T13:56:57.751Z,9.19
2023-04-06T13:59:26.452Z,8.91
2023-04-06T14:01:55.296Z,8.72
2023-04-06T14:04:24.361Z,8.94
2023-04-06T14:06:53.768Z,9.31
2023-04-06T14:09:22.381Z,8.62
2023-04-06T14:11:52.997Z,9.66
2023-04-06T14:14:22.063Z,9.49
2023-04-06T14:16:51.868Z,9.14
2023-04-06T14:19:21.871Z,8.98
2023-04-06T14:21:50.939Z,8.98
2023-04-06T14:24:20.318Z,8.69
2023-04-06T14:26:49.017Z,8.45
2023-04-06T14:29:19.314Z,8.56
2023-04-06T14:31:49.423Z,8.68
2023-04-06T14:34:21.634Z,8.64
2023-04-06T14:36:52.080Z,8.87
2023-04-06T14:39:21.644Z,8.74
2023-04-06T14:41:51.086Z,8.66
2023-04-06T14:44:21.394Z,8.78
2023-04-06T14:46:51.195Z,8.95
2023-04-06T14:49:19.933Z,8.95
2023-04-06T14:51:48.619Z,9.08
2023-04-06T14:54:17.488Z,9.15
2023-04-06T14:56:46.202Z,8.84
2023-04-06T14:59:14.868Z,8.45
2023-04-06T15:01:45.526Z,8.43
2023-04-06T15:04:15.179Z,8.48
2023-04-06T15:06:44.203Z,8.66
2023-04-06T15:09:13.149Z,8.82
2023-04-06T15:11:41.815Z,8.54
2023-04-06T15:14:10.720Z,7.69
2023-04-06T15:16:39.343Z,7.84
2023-04-06T15:19:13.895Z,8.09
2023-04-06T15:21:43.061Z,7.99
2023-04-06T15:24:11.856Z,7.83
2023-04-06T15:26:40.993Z,7.51
2023-04-06T15:29:09.869Z,8.12
2023-04-06T15:31:39.878Z,8.05
2023-04-06T15:34:10.071Z,7.87
2023-04-06T15:36:39.131Z,8.01
2023-04-06T15:39:09.872Z,8.11
2023-04-06T15:41:38.832Z,7.85
2023-04-06T15:44:07.482Z,8.26
2023-04-06T15:46:36.641Z,8.07
2023-04-06T15:49:05.798Z,8.47
2023-04-06T15:51:35.997Z,7.97
2023-04-06T15:54:04.967Z,7.89
2023-04-06T15:56:33.900Z,8.31
2023-04-06T15:59:04.224Z,8.00
2023-04-06T16:01:33.300Z,7.85
2023-04-06T16:04:02.594Z,7.42
2023-04-06T16:06:32.609Z,7.68
2023-04-06T16:09:02.650Z,7.99
2023-04-06T16:11:32.583Z,7.77
2023-04-06T16:14:01.264Z,7.28
2023-04-06T16:16:30.090Z,7.28
2023-04-06T16:18:59.081Z,7.12
2023-04-06T16:21:28.789Z,7.41
2023-04-06T16:23:59.676Z,7.36
2023-04-06T16:26:30.305Z,7.01
2023-04-06T16:28:59.425Z,6.86
2023-04-06T16:31:28.109Z,6.83
2023-04-06T16:33:58.080Z,6.89
2023-04-06T16:36:28.206Z,6.56
2023-04-06T16:38:57.966Z,6.81
2023-04-06T16:41:27.861Z,6.08
2023-04-06T16:43:58.037Z,5.96
2023-04-06T16:46:31.296Z,6.00
2023-04-06T16:49:00.487Z,5.98
2023-04-06T16:51:29.573Z,5.77
2023-04-06T16:53:58.308Z,5.39
2023-04-06T16:56:27.564Z,5.42
2023-04-06T16:58:58.108Z,5.52
2023-04-06T17:01:28.270Z,5.38
2023-04-06T17:03:57.757Z,5.50
2023-04-06T17:06:27.116Z,5.29
2023-04-06T17:08:55.800Z,5.30
2023-04-06T17:11:32.607Z,5.08
2023-04-06T17:14:10.705Z,5.21
2023-04-06T17:16:39.654Z,4.93
2023-04-06T17:19:08.466Z,5.03
2023-04-06T17:21:37.244Z,5.26
2023-04-06T17:24:06.953Z,4.92
2023-04-06T17:26:35.652Z,5.11
2023-04-06T17:29:04.561Z,5.03
2023-04-06T17:31:34.942Z,4.90
2023-04-06T17:34:03.758Z,4.61
2023-04-06T17:36:32.889Z,4.80
2023-04-06T17:39:01.909Z,4.94
2023-04-06T17:41:32.772Z,4.84
2023-04-06T17:44:02.030Z,4.86
2023-04-06T17:46:31.085Z,5.02
2023-04-06T17:49:01.188Z,4.88
2023-04-06T17:51:31.188Z,4.72
2023-04-06T17:54:00.167Z,4.65
2023-04-06T17:56:29.335Z,4.46
2023-04-06T17:58:58.415Z,4.42
2023-04-06T18:01:27.517Z,4.59
2023-04-06T18:03:56.714Z,4.73
2023-04-06T18:06:27.586Z,4.91
2023-04-06T18:08:56.919Z,4.60
2023-04-06T18:11:25.878Z,4.79
2023-04-06T18:13:54.795Z,4.96
2023-04-06T18:16:24.322Z,4.92
2023-04-06T18:18:53.184Z,4.34
2023-04-06T18:21:21.924Z,4.48
2023-04-06T18:23:53.243Z,4.78
2023-04-06T18:26:22.165Z,4.49
2023-04-06T18:28:51.360Z,4.33
2023-04-06T18:31:22.109Z,4.66
2023-04-06T18:33:52.875Z,4.34
2023-04-06T18:36:22.900Z,4.30
2023-04-06T18:38:53.380Z,4.63
2023-04-06T18:41:22.614Z,4.65
2023-04-06T18:43:51.444Z,4.81
2023-04-06T18:46:20.545Z,4.91
2023-04-06T18:48:49.316Z,4.82
2023-04-06T18:51:17.959Z,4.69
2023-04-06T18:53:46.797Z,4.57
2023-04-06T18:56:18.693Z,4.46
2023-04-06T18:58:49.260Z,4.57
2023-04-06T19:01:25.250Z,4.35
2023-04-06T19:03:56.049Z,4.37
2023-04-06T19:06:27.188Z,4.47
2023-04-06T19:08:56.758Z,4.45
2023-04-06T19:11:27.368Z,4.60
2023-04-06T19:13:56.894Z,4.45
2023-04-06T19:16:26.665Z,4.66
2023-04-06T19:18:58.200Z,4.65
2023-04-06T19:21:27.934Z,4.56
2023-04-06T19:23:57.246Z,4.55
2023-04-06T19:26:30.456Z,4.67
2023-04-06T19:28:59.658Z,4.51
2023-04-06T19:31:28.540Z,4.52
2023-04-06T19:33:57.334Z,4.49
2023-04-06T19:36:26.399Z,4.60
2023-04-06T19:38:55.061Z,4.60
2023-04-06T19:41:26.587Z,4.40
2023-04-06T19:43:57.015Z,4.55
2023-04-06T19:46:25.999Z,4.76
2023-04-06T19:48:55.150Z,5.04
2023-04-06T19:51:23.842Z,4.86
2023-04-06T19:53:54.941Z,4.91
2023-04-06T19:56:24.009Z,4.53
2023-04-06T19:58:52.662Z,4.44
2023-04-06T20:01:40.297Z,4.24
2023-04-06T20:04:09.502Z,4.36
2023-04-06T20:06:38.296Z,4.39
2023-04-06T20:09:08.304Z,4.64
2023-04-06T20:11:37.194Z,4.30
2023-04-06T20:14:06.339Z,4.59
2023-04-06T20:16:36.432Z,4.64
2023-04-06T20:19:05.548Z,4.44
2023-04-06T20:21:34.328Z,4.49
2023-04-06T20:24:03.066Z,4.78
2023-04-06T20:26:32.096Z,4.72
2023-04-06T20:29:01.117Z,4.84
2023-04-06T20:31:30.095Z,5.13
2023-04-06T20:34:01.607Z,5.22
2023-04-06T20:36:32.330Z,5.13
2023-04-06T20:39:01.471Z,5.19
2023-04-06T20:41:30.642Z,4.88
2023-04-06T20:43:59.521Z,4.70
2023-04-06T20:46:28.745Z,4.97
2023-04-06T20:48:57.622Z,5.05
2023-04-06T20:51:27.726Z,4.90
2023-04-06T20:53:57.499Z,4.98
2023-04-06T20:56:31.020Z,4.94
2023-04-06T20:59:00.611Z,5.39
2023-04-06T21:01:30.155Z,5.34
2023-04-06T21:04:00.587Z,5.37
2023-04-06T21:06:32.578Z,5.57
2023-04-06T21:09:01.641Z,5.39
2023-04-06T21:11:30.543Z,5.58
2023-04-06T21:13:59.182Z,5.30
2023-04-06T21:16:28.016Z,5.40
2023-04-06T21:18:56.993Z,4.99
2023-04-06T21:21:25.929Z,5.13
2023-04-06T21:23:56.571Z,4.92
2023-04-06T21:26:25.606Z,5.18
2023-04-06T21:28:54.567Z,4.94
2023-04-06T21:31:23.405Z,5.03
2023-04-06T21:33:52.641Z,4.67
2023-04-06T21:36:21.880Z,4.94
2023-04-06T21:38:50.640Z,4.96
2023-04-06T21:41:24.279Z,4.77
2023-04-06T21:43:52.983Z,4.78
2023-04-06T21:46:26.127Z,4.87
2023-04-06T21:48:54.945Z,4.72
2023-04-06T21:51:24.447Z,4.82
2023-04-06T21:53:53.798Z,4.73
2023-04-06T21:56:24.594Z,4.77
2023-04-06T21:58:54.325Z,4.87
2023-04-06T22:01:23.155Z,4.93
2023-04-06T22:03:52.959Z,4.84
2023-04-06T22:06:24.044Z,4.83
2023-04-06T22:08:53.040Z,4.69
2023-04-06T22:11:21.820Z,4.53
2023-04-06T22:13:51.898Z,4.47
2023-04-06T22:16:20.862Z,4.62
2023-04-06T22:18:49.614Z,4.89
2023-04-06T22:21:18.295Z,4.92
2023-04-06T22:23:47.463Z,4.78
2023-04-06T22:26:16.172Z,5.04
2023-04-06T22:28:47.621Z,4.99
2023-04-06T22:31:18.124Z,4.82
2023-04-06T22:33:46.793Z,4.99
2023-04-06T22:36:15.606Z,5.06
2023-04-06T22:38:44.679Z,5.06
2023-04-06T22:41:13.376Z,4.98
2023-04-06T22:43:42.122Z,4.72
2023-04-06T22:46:11.082Z,5.09
2023-04-06T22:48:41.138Z,5.29
2023-04-06T22:51:09.946Z,5.20
2023-04-06T22:53:47.124Z,5.10
2023-04-06T22:56:15.877Z,5.39
2023-04-06T22:58:45.024Z,5.24
2023-04-06T23:01:13.812Z,5.22
2023-04-06T23:03:44.366Z,5.18
2023-04-06T23:06:13.376Z,5.15
2023-04-06T23:08:42.040Z,5.23
2023-04-06T23:11:10.729Z,5.14
2023-04-06T23:13:39.852Z,4.95
2023-04-06T23:16:12.418Z,4.55
2023-04-06T23:18:41.491Z,4.66
2023-04-06T23:21:11.541Z,4.76
2023-04-06T23:23:40.212Z,4.69
2023-04-06T23:26:09.235Z,4.68
2023-04-06T23:28:37.925Z,4.73
2023-04-06T23:31:06.735Z,4.59
2023-04-06T23:33:35.818Z,4.97
2023-04-06T23:36:04.803Z,5.07
2023-04-06T23:38:34.880Z,5.10
2023-04-06T23:41:03.909Z,5.13
2023-04-06T23:43:32.652Z,5.25
2023-04-06T23:46:01.787Z,5.35
2023-04-06T23:48:30.883Z,5.19
2023-04-06T23:50:59.595Z,5.11
2023-04-06T23:53:28.302Z,5.05
2023-04-06T23:55:58.782Z,5.12
2023-04-06T23:58:27.554Z,5.06
